Time;durP1;ratioP1;P1;durP2;ratioP2;P2;SDS_P1;SDS_P2;PMS_P1;PMS_P2;Temp;Humidity;BMP_temperature;BMP_pressure;BME280_temperature;BME280_humidity;BME280_pressure;Samples;Min_cycle;Max_cycle;Signal;HPM_P1;HPM_P2
2023/06/30 00:00:47;;;;;;;19.73;12.18;;;;;;;17.02;100.00;92735.00;2019627;29;20035;-83
2023/06/30 00:01:57;;;;;;;17.70;11.80;;;;;;;17.02;100.00;92726.88;2018706;29;20032;-84
2023/06/30 00:03:05;;;;;;;19.63;12.35;;;;;;;16.93;100.00;92728.94;2011517;29;20110;-83
2023/06/30 00:04:16;;;;;;;23.98;13.75;;;;;;;16.91;100.00;92739.47;2014508;29;20504;-83
2023/06/30 00:05:27;;;;;;;18.58;12.18;;;;;;;17.04;100.00;92737.25;2014641;29;20018;-81
2023/06/30 00:06:36;;;;;;;21.20;12.98;;;;;;;17.08;100.00;92732.41;2013226;29;20033;-84
2023/06/30 00:07:45;;;;;;;21.63;12.68;;;;;;;17.02;100.00;92732.28;2013276;29;20021;-83
2023/06/30 00:08:59;;;;;;;23.55;12.77;;;;;;;17.00;100.00;92734.72;2012323;29;20033;-83
2023/06/30 00:10:20;;;;;;;23.85;12.40;;;;;;;16.94;100.00;92733.13;2015582;29;20372;-83
2023/06/30 00:11:24;;;;;;;26.23;12.93;;;;;;;16.91;100.00;92725.97;2016422;29;20032;-82
2023/06/30 00:12:32;;;;;;;21.88;12.00;;;;;;;16.83;100.00;92728.28;2011098;29;20053;-81
2023/06/30 00:13:42;;;;;;;19.55;12.73;;;;;;;16.86;100.00;92722.72;1997015;29;20026;-81
2023/06/30 00:14:49;;;;;;;21.52;12.75;;;;;;;16.89;100.00;92722.97;2003900;29;20025;-81
2023/06/30 00:15:58;;;;;;;20.40;12.85;;;;;;;16.90;100.00;92729.88;2012423;29;20482;-82
2023/06/30 00:17:04;;;;;;;23.02;12.52;;;;;;;16.86;100.00;92725.41;2013393;29;20029;-81
2023/06/30 00:18:07;;;;;;;23.30;12.88;;;;;;;16.85;100.00;92732.00;2012019;29;20046;-84
2023/06/30 00:19:10;;;;;;;20.67;12.85;;;;;;;16.85;100.00;92728.56;2022236;29;20740;-82
2023/06/30 00:20:26;;;;;;;20.63;13.02;;;;;;;16.86;100.00;92719.28;2019856;29;20108;-81
2023/06/30 00:21:33;;;;;;;21.27;12.52;;;;;;;16.89;100.00;92723.72;2005904;29;20386;-82
2023/06/30 00:22:38;;;;;;;20.67;12.18;;;;;;;16.89;100.00;92725.69;2005711;29;20970;-82
2023/06/30 00:23:46;;;;;;;19.10;13.05;;;;;;;16.86;100.00;92725.41;2020589;29;20111;-82
2023/06/30 00:24:58;;;;;;;19.85;12.65;;;;;;;16.74;100.00;92728.38;2011777;29;20498;-82
2023/06/30 00:26:06;;;;;;;19.17;12.45;;;;;;;16.77;100.00;92728.22;2013618;29;20730;-84
2023/06/30 00:27:15;;;;;;;20.27;12.10;;;;;;;16.80;100.00;92726.50;2015489;29;20026;-83
2023/06/30 00:28:20;;;;;;;17.35;11.15;;;;;;;16.80;100.00;92727.25;2015498;29;20092;-82
2023/06/30 00:29:27;;;;;;;21.98;12.20;;;;;;;16.81;100.00;92725.31;2015435;29;20042;-81
2023/06/30 00:30:33;;;;;;;21.88;12.68;;;;;;;16.80;100.00;92723.81;2001179;29;20426;-82
2023/06/30 00:31:43;;;;;;;22.88;12.20;;;;;;;16.78;100.00;92723.56;2019304;29;20092;-83
2023/06/30 00:32:50;;;;;;;23.80;12.60;;;;;;;16.67;100.00;92715.97;2017231;29;20181;-82
2023/06/30 00:33:57;;;;;;;20.13;12.18;;;;;;;16.71;100.00;92715.78;2005445;29;20034;-81
2023/06/30 00:35:03;;;;;;;22.63;13.60;;;;;;;16.74;100.00;92712.94;2011085;29;20021;-81
2023/06/30 00:36:11;;;;;;;22.92;12.85;;;;;;;16.72;100.00;92714.56;2019475;29;20037;-82
2023/06/30 00:37:18;;;;;;;23.67;12.98;;;;;;;16.72;100.00;92717.25;2018157;29;20033;-82
2023/06/30 00:38:27;;;;;;;19.45;12.48;;;;;;;16.71;100.00;92715.78;2020075;29;20021;-82
2023/06/30 00:39:37;;;;;;;23.52;13.13;;;;;;;16.69;100.00;92710.13;2010178;29;20105;-82
2023/06/30 00:40:43;;;;;;;22.92;13.30;;;;;;;16.61;100.00;92710.47;2009887;29;20049;-81
2023/06/30 00:41:53;;;;;;;20.52;13.00;;;;;;;16.57;100.00;92709.16;2022259;29;20101;-82
2023/06/30 00:43:00;;;;;;;18.23;12.88;;;;;;;16.60;100.00;92703.59;2019660;29;20033;-82
2023/06/30 00:44:06;;;;;;;18.08;12.63;;;;;;;16.55;100.00;92698.84;2004351;29;20102;-82
2023/06/30 00:45:13;;;;;;;19.98;12.35;;;;;;;16.49;100.00;92692.59;2003759;29;20034;-83
2023/06/30 00:46:20;;;;;;;21.08;12.15;;;;;;;16.48;100.00;92696.50;2007307;29;20230;-82
2023/06/30 00:47:32;;;;;;;20.15;12.00;;;;;;;16.47;100.00;92692.31;2004671;29;20038;-84
2023/06/30 00:48:42;;;;;;;21.95;13.05;;;;;;;16.40;100.00;92687.28;2007387;29;20040;-82
2023/06/30 00:49:45;;;;;;;21.90;12.98;;;;;;;16.43;100.00;92697.16;2005736;29;20030;-82
2023/06/30 00:50:53;;;;;;;23.95;12.93;;;;;;;16.46;100.00;92690.06;2013658;29;20052;-83
2023/06/30 00:52:08;;;;;;;19.13;12.77;;;;;;;16.49;100.00;92691.84;2012792;29;20032;-84
2023/06/30 00:53:30;;;;;;;20.63;13.35;;;;;;;16.47;100.00;92688.88;2015332;29;20029;-82
2023/06/30 00:54:37;;;;;;;17.20;12.90;;;;;;;16.33;100.00;92687.63;2019427;29;20033;-82
2023/06/30 00:55:44;;;;;;;19.23;12.95;;;;;;;16.36;100.00;92684.75;2011618;29;20087;-81
2023/06/30 00:56:54;;;;;;;25.48;12.70;;;;;;;16.40;100.00;92689.22;2013108;29;20676;-82
2023/06/30 00:57:58;;;;;;;21.60;14.13;;;;;;;16.35;100.00;92688.66;2012729;29;20077;-84
2023/06/30 00:59:05;;;;;;;19.70;13.32;;;;;;;16.31;100.00;92687.34;2005465;29;20105;-82
2023/06/30 01:00:14;;;;;;;22.85;13.68;;;;;;;16.30;100.00;92688.56;2007905;29;20838;-81
2023/06/30 01:01:32;;;;;;;21.83;13.70;;;;;;;16.32;100.00;92692.28;2006292;29;20038;-82
2023/06/30 01:02:46;;;;;;;22.35;13.60;;;;;;;16.27;100.00;92690.22;2016172;29;20036;-81
2023/06/30 01:04:11;;;;;;;25.55;14.70;;;;;;;16.33;100.00;92691.09;2017810;29;20065;-82
2023/06/30 01:05:20;;;;;;;22.23;14.50;;;;;;;16.35;100.00;92694.06;2018714;29;20217;-82
2023/06/30 01:06:39;;;;;;;20.70;13.73;;;;;;;16.28;100.00;92691.72;2008455;29;20528;-82
2023/06/30 01:07:56;;;;;;;24.15;14.50;;;;;;;16.27;100.00;92687.53;2014025;29;20539;-82
2023/06/30 01:09:19;;;;;;;24.23;14.10;;;;;;;16.31;100.00;92687.34;2003493;29;20074;-82
2023/06/30 01:10:29;;;;;;;24.83;13.48;;;;;;;16.31;100.00;92685.41;2009964;29;20033;-82
2023/06/30 01:11:39;;;;;;;25.70;14.40;;;;;;;16.35;100.00;92680.56;2015641;29;20467;-83
2023/06/30 01:12:46;;;;;;;24.55;14.30;;;;;;;16.36;100.00;92682.06;2012109;29;20029;-82
2023/06/30 01:13:57;;;;;;;22.92;14.52;;;;;;;16.38;100.00;92680.88;2011524;29;20052;-82
2023/06/30 01:15:05;;;;;;;20.55;14.52;;;;;;;16.34;100.00;92681.03;2008638;29;20060;-82
2023/06/30 01:16:16;;;;;;;25.27;14.73;;;;;;;16.29;100.00;92679.00;2013717;29;20036;-82
2023/06/30 01:17:25;;;;;;;26.77;14.23;;;;;;;16.33;100.00;92685.69;2019478;29;20092;-82
2023/06/30 01:18:36;;;;;;;22.48;14.25;;;;;;;16.35;100.00;92683.28;2017710;29;20124;-82
2023/06/30 01:19:45;;;;;;;25.48;14.73;;;;;;;16.31;100.00;92677.31;2017405;29;20025;-82
2023/06/30 01:20:51;;;;;;;23.23;13.98;;;;;;;16.32;100.00;92678.78;2011167;29;20026;-81
2023/06/30 01:22:04;;;;;;;20.77;14.32;;;;;;;16.22;100.00;92676.66;2004702;29;20443;-82
2023/06/30 01:23:36;;;;;;;21.90;14.73;;;;;;;16.28;100.00;92677.50;2013502;29;20025;-82
2023/06/30 01:24:50;;;;;;;27.45;14.38;;;;;;;16.34;100.00;92678.34;2020702;29;20028;-82
2023/06/30 01:25:59;;;;;;;25.65;14.68;;;;;;;16.29;100.00;92673.59;2018182;29;20057;-82
2023/06/30 01:27:07;;;;;;;33.78;15.00;;;;;;;16.32;100.00;92669.97;2018944;29;20081;-82
2023/06/30 01:28:16;;;;;;;23.15;14.73;;;;;;;16.25;100.00;92671.09;2015451;29;20033;-82
2023/06/30 01:29:24;;;;;;;24.75;15.07;;;;;;;16.21;100.00;92675.91;2012998;29;20934;-82
2023/06/30 01:30:32;;;;;;;24.33;14.77;;;;;;;16.19;100.00;92664.81;2020537;29;20070;-82
2023/06/30 01:31:43;;;;;;;25.80;15.68;;;;;;;16.28;100.00;92672.09;2008622;29;20124;-83
2023/06/30 01:32:50;;;;;;;26.83;15.60;;;;;;;16.29;100.00;92670.91;2005021;29;20026;-83
2023/06/30 01:33:59;;;;;;;29.77;15.18;;;;;;;16.31;100.00;92671.91;2019407;29;20117;-83
2023/06/30 01:35:06;;;;;;;25.05;15.55;;;;;;;16.25;100.00;92670.34;2017439;29;20543;-82
2023/06/30 01:36:14;;;;;;;32.83;15.60;;;;;;;16.31;100.00;92671.91;2017418;29;20478;-85
2023/06/30 01:37:28;;;;;;;31.90;16.10;;;;;;;16.24;100.00;92676.91;2020335;29;20113;-82
2023/06/30 01:38:35;;;;;;;29.20;15.60;;;;;;;16.32;100.00;92669.97;2014004;29;20459;-82
2023/06/30 01:39:45;;;;;;;27.02;15.70;;;;;;;16.29;100.00;92668.94;2011711;29;20370;-82
2023/06/30 01:40:50;;;;;;;;;;;;;;;16.31;100.00;92665.78;2012301;29;20049;-82
2023/06/30 01:41:54;;;;;;;29.58;16.48;;;;;;;16.27;100.00;92665.22;2010008;29;19927;-83
2023/06/30 01:43:05;;;;;;;29.02;16.15;;;;;;;16.25;100.00;92663.00;2011528;29;20030;-82
2023/06/30 01:44:09;;;;;;;34.50;17.33;;;;;;;16.17;100.00;92669.19;2019501;29;20054;-81
2023/06/30 01:45:16;;;;;;;24.67;16.13;;;;;;;16.22;100.00;92671.25;2011534;29;20891;-82
2023/06/30 01:46:25;;;;;;;34.67;17.25;;;;;;;16.20;100.00;92671.72;2008246;29;20596;-82
2023/06/30 01:47:29;;;;;;;31.20;16.52;;;;;;;16.19;100.00;92667.53;2015320;29;20025;-81
2023/06/30 01:48:40;;;;;;;31.33;17.73;;;;;;;16.20;100.00;92660.16;2010777;29;20029;-82
2023/06/30 01:49:49;;;;;;;27.92;15.98;;;;;;;16.25;100.00;92664.94;2004009;29;20029;-82
2023/06/30 01:50:50;;;;;;;31.98;16.90;;;;;;;16.23;100.00;92662.69;2003114;29;20026;-83
2023/06/30 01:51:55;;;;;;;34.17;17.13;;;;;;;16.20;100.00;92660.16;1993931;29;20471;-83
2023/06/30 01:52:56;;;;;;;29.40;16.52;;;;;;;16.16;100.00;92665.75;2000153;29;20173;-82
2023/06/30 01:54:01;;;;;;;34.35;16.63;;;;;;;16.19;100.00;92664.09;2003008;29;20041;-83
2023/06/30 01:55:11;;;;;;;28.08;16.20;;;;;;;16.20;100.00;92665.56;2001903;29;20110;-82
2023/06/30 01:56:18;;;;;;;28.30;16.10;;;;;;;16.24;100.00;92666.91;2013951;29;20090;-81
2023/06/30 01:57:19;;;;;;;25.55;15.77;;;;;;;16.22;100.00;92663.16;2025324;29;20068;-82
2023/06/30 01:58:21;;;;;;;35.22;17.30;;;;;;;16.14;100.00;92664.72;2009740;29;20033;-83
2023/06/30 01:59:22;;;;;;;32.58;16.15;;;;;;;16.17;100.00;92671.91;1994730;29;20031;-82
2023/06/30 02:00:23;;;;;;;28.45;16.52;;;;;;;16.20;100.00;92671.72;2002128;29;20055;-82
2023/06/30 02:01:24;;;;;;;29.75;16.58;;;;;;;16.15;100.00;92666.94;2005583;29;20662;-82
2023/06/30 02:02:26;;;;;;;29.35;16.88;;;;;;;16.09;100.00;92664.16;2015589;29;20035;-81
2023/06/30 02:03:27;;;;;;;29.42;16.80;;;;;;;16.08;100.00;92670.75;2016757;29;20045;-82
2023/06/30 02:04:35;;;;;;;28.50;16.20;;;;;;;16.04;100.00;92664.06;2001762;29;20340;-82
2023/06/30 02:05:36;;;;;;;29.50;15.95;;;;;;;16.08;100.00;92670.75;2003733;29;20033;-82
2023/06/30 02:06:38;;;;;;;25.90;15.48;;;;;;;16.09;100.00;92679.59;2008863;29;20078;-81
2023/06/30 02:07:39;;;;;;;29.08;16.73;;;;;;;16.15;100.00;92677.75;2008402;29;20534;-82
2023/06/30 02:08:40;;;;;;;35.22;16.88;;;;;;;16.20;100.00;92687.91;2001907;29;20037;-82
2023/06/30 02:09:41;;;;;;;30.27;16.98;;;;;;;16.15;100.00;92682.38;1997017;29;20054;-82
2023/06/30 02:10:42;;;;;;;36.05;17.55;;;;;;;16.18;100.00;92676.06;1995184;29;20508;-81
2023/06/30 02:11:45;;;;;;;33.95;17.40;;;;;;;16.25;100.00;92670.34;2013529;29;20121;-82
2023/06/30 02:12:46;;;;;;;40.10;17.67;;;;;;;16.28;100.00;92678.22;2024336;29;20217;-82
2023/06/30 02:13:50;;;;;;;31.67;17.63;;;;;;;16.33;100.00;92668.75;2012961;29;20513;-82
2023/06/30 02:14:51;;;;;;;32.60;17.27;;;;;;;16.35;100.00;92669.78;2009267;29;20022;-82
2023/06/30 02:15:52;;;;;;;30.50;17.30;;;;;;;16.34;100.00;92676.41;2002045;29;20041;-82
2023/06/30 02:16:53;;;;;;;32.08;17.35;;;;;;;16.44;100.00;92673.63;2009240;29;20029;-82
2023/06/30 02:17:55;;;;;;;32.38;17.77;;;;;;;16.48;100.00;92680.31;2009151;29;20467;-82
2023/06/30 02:18:56;;;;;;;33.92;17.40;;;;;;;16.52;100.00;92680.13;2009641;29;20052;-82
2023/06/30 02:32:13;;;;;;;47.63;19.77;;;;;;;16.44;100.00;92685.16;2578867;22;20498;-84
2023/06/30 02:33:15;;;;;;;48.45;19.67;;;;;;;16.46;100.00;92688.13;2573909;23;20087;-84
2023/06/30 02:34:17;;;;;;;56.15;20.73;;;;;;;16.47;100.00;92688.88;2561144;23;20001;-86
2023/06/30 02:35:18;;;;;;;55.42;20.52;;;;;;;16.48;100.00;92684.97;2548219;23;20040;-84
2023/06/30 02:36:20;;;;;;;82.78;23.60;;;;;;;16.33;100.00;92691.09;2560817;23;20588;-83
2023/06/30 02:37:21;;;;;;;54.47;20.83;;;;;;;16.36;100.00;92689.41;2573605;23;20035;-85
2023/06/30 02:38:23;;;;;;;43.17;18.55;;;;;;;16.20;100.00;92682.50;2560558;23;20004;-84
2023/06/30 02:39:27;;;;;;;69.90;22.15;;;;;;;16.09;100.00;92680.34;2536209;23;20005;-84
2023/06/30 02:40:32;;;;;;;63.72;21.83;;;;;;;15.91;100.00;92675.09;2551275;23;20423;-83
2023/06/30 02:41:34;;;;;;;60.25;21.92;;;;;;;15.90;100.00;92680.94;2548193;23;20017;-84
2023/06/30 02:42:35;;;;;;;57.55;22.27;;;;;;;15.84;100.00;92675.41;2548352;23;20005;-84
2023/06/30 02:43:39;;;;;;;57.75;22.35;;;;;;;15.75;100.00;92667.41;2535987;23;20507;-82
2023/06/30 02:44:41;;;;;;;64.30;22.75;;;;;;;15.79;100.00;92671.41;2549437;23;20006;-82
2023/06/30 02:45:44;;;;;;;50.67;20.50;;;;;;;15.75;100.00;92672.78;2573364;23;20000;-85
2023/06/30 02:46:46;;;;;;;47.97;20.75;;;;;;;15.66;100.00;92667.47;2548750;23;20391;-83
2023/06/30 02:47:47;;;;;;;51.65;20.80;;;;;;;15.65;100.00;92664.03;2547439;23;20005;-84
2023/06/30 02:48:49;;;;;;;43.58;19.98;;;;;;;15.68;100.00;92663.13;2548339;23;20005;-82
2023/06/30 02:49:50;;;;;;;35.63;18.52;;;;;;;15.70;100.00;92665.34;2548564;23;20002;-82
2023/06/30 02:50:52;;;;;;;41.00;20.65;;;;;;;15.69;100.00;92663.84;2573007;23;20024;-81
2023/06/30 02:51:53;;;;;;;41.50;19.60;;;;;;;15.66;100.00;92668.19;2547877;23;20092;-83
2023/06/30 02:52:56;;;;;;;41.30;20.35;;;;;;;15.68;100.00;92662.38;2536276;23;20064;-80
2023/06/30 02:53:57;;;;;;;34.60;20.02;;;;;;;15.70;100.00;92668.78;2548630;23;20084;-80
2023/06/30 02:54:58;;;;;;;37.85;20.08;;;;;;;15.69;100.00;92672.69;2547808;23;20005;-79
2023/06/30 02:56:05;;;;;;;43.88;21.20;;;;;;;15.64;100.00;92664.47;2536100;23;20104;-82
2023/06/30 02:57:06;;;;;;;36.03;19.10;;;;;;;15.67;100.00;92664.31;2550567;23;20009;-81
2023/06/30 02:58:08;;;;;;;32.40;18.77;;;;;;;15.57;100.00;92666.28;2548099;23;20006;-82
2023/06/30 02:59:10;;;;;;;38.20;18.83;;;;;;;15.56;100.00;92662.09;2548492;23;20011;-85
2023/06/30 03:00:12;;;;;;;34.03;18.38;;;;;;;15.50;100.00;92655.88;2560383;23;20064;-83
2023/06/30 03:01:13;;;;;;;39.60;19.05;;;;;;;15.52;100.00;92663.47;2560131;23;20052;-86
2023/06/30 03:02:14;;;;;;;35.03;18.50;;;;;;;15.51;100.00;92659.31;2560284;23;20001;-84
2023/06/30 03:03:15;;;;;;;40.10;19.17;;;;;;;15.51;100.00;92657.34;2560427;23;20000;-85
2023/06/30 03:04:16;;;;;;;32.47;18.73;;;;;;;15.49;100.00;92654.34;2535380;23;20016;-82
2023/06/30 03:05:17;;;;;;;34.05;17.90;;;;;;;15.48;100.00;92652.88;2547938;23;20049;-80
2023/06/30 03:06:21;;;;;;;35.17;18.00;;;;;;;15.43;100.00;92650.81;2551608;23;20009;-80
2023/06/30 03:07:27;;;;;;;44.35;19.90;;;;;;;15.39;100.00;92652.91;2551732;23;20006;-82
2023/06/30 03:08:35;;;;;;;45.22;19.80;;;;;;;15.38;100.00;92650.69;2550842;23;20013;-82
2023/06/30 03:09:41;;;;;;;34.55;19.48;;;;;;;15.37;100.00;92649.94;2542212;23;20020;-82
2023/06/30 03:10:49;;;;;;;40.65;19.67;;;;;;;15.36;100.00;92651.91;2541497;23;20012;-81
2023/06/30 03:11:59;;;;;;;31.80;18.85;;;;;;;15.36;100.00;92643.81;2543352;23;20006;-82
2023/06/30 03:13:08;;;;;;;31.58;17.67;;;;;;;15.43;100.00;92644.69;2554097;23;20001;-79
2023/06/30 03:14:12;;;;;;;37.85;18.65;;;;;;;15.42;100.00;92649.31;2553253;23;20423;-80
2023/06/30 03:15:18;;;;;;;37.78;18.27;;;;;;;15.39;100.00;92642.16;2540762;23;20029;-84
2023/06/30 03:16:24;;;;;;;36.00;18.27;;;;;;;15.40;100.00;92642.88;2541286;23;20029;-79
2023/06/30 03:17:30;;;;;;;35.78;18.20;;;;;;;15.45;100.00;92643.03;2552679;23;20119;-80
2023/06/30 03:18:38;;;;;;;37.25;18.38;;;;;;;15.42;100.00;92641.25;2550968;23;20001;-84
2023/06/30 03:19:47;;;;;;;30.42;17.45;;;;;;;15.40;100.00;92649.03;2551894;23;20016;-79
2023/06/30 03:20:55;;;;;;;34.08;18.55;;;;;;;15.36;100.00;92643.81;2563597;23;20300;-82
2023/06/30 03:21:59;;;;;;;32.88;17.02;;;;;;;15.40;100.00;92635.56;2563557;23;20059;-81
2023/06/30 03:23:07;;;;;;;30.33;17.60;;;;;;;15.39;100.00;92638.72;2576290;23;20076;-85
2023/06/30 03:24:12;;;;;;;35.72;17.83;;;;;;;15.39;100.00;92634.06;2551597;23;20009;-79
2023/06/30 03:25:19;;;;;;;34.15;18.75;;;;;;;15.38;100.00;92637.97;2552171;23;20033;-80
2023/06/30 03:26:28;;;;;;;36.17;18.67;;;;;;;15.32;100.00;92640.56;2542076;23;20343;-79
2023/06/30 03:27:36;;;;;;;31.35;17.65;;;;;;;15.30;100.00;92637.56;2542404;23;20060;-79
2023/06/30 03:28:47;;;;;;;31.67;16.90;;;;;;;15.34;100.00;92638.13;2541976;23;20006;-83
2023/06/30 03:29:55;;;;;;;40.05;17.80;;;;;;;15.41;100.00;92633.59;2542348;23;20056;-82
2023/06/30 03:31:09;;;;;;;30.98;16.77;;;;;;;15.38;100.00;92637.97;2558164;23;20005;-85
2023/06/30 03:32:11;;;;;;;31.20;16.92;;;;;;;15.37;100.00;92631.09;2553581;23;20084;-82
2023/06/30 03:33:16;;;;;;;30.17;17.58;;;;;;;15.41;100.00;92634.38;2548854;23;20032;-83
2023/06/30 03:34:19;;;;;;;34.78;16.67;;;;;;;15.44;100.00;92635.38;2551443;23;20439;-78
2023/06/30 03:35:25;;;;;;;30.25;16.75;;;;;;;15.34;100.00;92640.81;2567229;23;20020;-83
2023/06/30 03:36:33;;;;;;;29.10;16.35;;;;;;;15.41;100.00;92642.44;2541595;23;20006;-84
2023/06/30 03:37:39;;;;;;;27.92;16.63;;;;;;;15.42;100.00;92646.63;2553332;23;20006;-80
2023/06/30 03:38:45;;;;;;;27.20;16.15;;;;;;;15.33;100.00;92642.03;2561019;23;20032;-82
2023/06/30 03:39:55;;;;;;;26.35;14.90;;;;;;;15.38;100.00;92642.63;2562786;23;20001;-81
2023/06/30 03:40:56;;;;;;;26.30;15.93;;;;;;;15.40;100.00;92640.94;2561050;23;20151;-80
2023/06/30 03:42:00;;;;;;;25.88;15.60;;;;;;;15.40;100.00;92645.59;2538242;23;20429;-82
2023/06/30 03:43:08;;;;;;;26.70;16.05;;;;;;;15.37;100.00;92641.88;2538583;23;20037;-81
2023/06/30 03:44:17;;;;;;;28.02;15.57;;;;;;;15.41;100.00;92637.06;2540494;23;20025;-81
2023/06/30 03:45:26;;;;;;;27.45;15.57;;;;;;;15.36;100.00;92646.53;2551144;23;20546;-81
2023/06/30 03:46:30;;;;;;;27.70;16.20;;;;;;;15.36;100.00;92643.81;2553000;23;20080;-82
2023/06/30 03:47:35;;;;;;;28.15;16.38;;;;;;;15.39;100.00;92641.41;2561384;23;20024;-84
2023/06/30 03:48:43;;;;;;;26.58;14.18;;;;;;;15.31;100.00;92638.31;2561285;23;20013;-82
2023/06/30 03:49:50;;;;;;;25.95;14.45;;;;;;;15.30;100.00;92642.19;2561449;23;20035;-83
2023/06/30 03:51:00;;;;;;;26.08;13.10;;;;;;;15.26;100.00;92644.31;2540185;23;20431;-80
2023/06/30 03:52:08;;;;;;;21.58;12.95;;;;;;;15.23;100.00;92642.53;2539414;23;20005;-79
2023/06/30 03:53:15;;;;;;;21.15;11.60;;;;;;;15.30;100.00;92647.59;2551358;23;20063;-83
2023/06/30 03:54:18;;;;;;;23.10;12.07;;;;;;;15.49;100.00;92635.50;2548311;23;20535;-81
2023/06/30 03:55:21;;;;;;;18.00;11.32;;;;;;;15.48;100.00;92639.41;2535969;23;20009;-82
2023/06/30 03:56:29;;;;;;;20.92;11.40;;;;;;;15.46;100.00;92639.13;2535690;23;20096;-81
2023/06/30 03:57:39;;;;;;;25.50;11.98;;;;;;;15.44;100.00;92633.44;2536883;23;20002;-83
2023/06/30 03:58:42;;;;;;;20.98;11.40;;;;;;;15.39;100.00;92634.06;2538050;23;20006;-81
2023/06/30 03:59:49;;;;;;;21.33;11.13;;;;;;;15.32;100.00;92635.16;2547695;23;20002;-85
2023/06/30 04:00:57;;;;;;;21.60;11.35;;;;;;;15.31;100.00;92638.31;2549940;23;20417;-83
2023/06/30 04:02:03;;;;;;;18.23;10.82;;;;;;;15.33;100.00;92636.66;2559441;23;20071;-81
2023/06/30 04:03:11;;;;;;;20.90;11.45;;;;;;;15.33;100.00;92644.00;2547821;23;20491;-80
2023/06/30 04:04:17;;;;;;;32.65;11.82;;;;;;;15.29;100.00;92640.72;2537853;23;19998;-82
2023/06/30 04:05:26;;;;;;;19.67;11.15;;;;;;;15.29;100.00;92640.72;2537109;23;20084;-85
2023/06/30 04:06:30;;;;;;;18.55;11.27;;;;;;;15.22;100.00;92643.75;2549223;23;20005;-83
2023/06/30 04:07:37;;;;;;;20.58;11.15;;;;;;;15.21;100.00;92639.56;2549128;23;20811;-85
2023/06/30 04:08:40;;;;;;;21.52;10.75;;;;;;;15.19;100.00;92634.63;2538864;23;20025;-83
2023/06/30 04:09:44;;;;;;;19.30;10.55;;;;;;;15.14;100.00;92640.63;2549055;23;20005;-85
2023/06/30 04:10:50;;;;;;;18.02;10.38;;;;;;;15.24;100.00;92638.66;2537548;23;19998;-84
2023/06/30 04:11:55;;;;;;;18.20;10.65;;;;;;;15.28;100.00;92625.78;2537755;23;20012;-84
2023/06/30 04:12:59;;;;;;;19.45;11.38;;;;;;;15.25;100.00;92638.19;2537325;23;20079;-84
2023/06/30 04:14:08;;;;;;;19.23;10.23;;;;;;;15.23;100.00;92629.06;2536426;23;20029;-87
2023/06/30 04:15:16;;;;;;;18.02;9.50;;;;;;;15.20;100.00;92635.38;2537258;23;20008;-85
2023/06/30 04:16:22;;;;;;;18.80;10.98;;;;;;;15.15;100.00;92636.75;2537931;23;20009;-81
2023/06/30 04:17:29;;;;;;;18.77;10.35;;;;;;;15.13;100.00;92630.31;2535134;23;20006;-85
2023/06/30 04:18:41;;;;;;;19.95;9.32;;;;;;;15.03;100.00;92630.38;2536603;23;20014;-87
2023/06/30 04:19:49;;;;;;;17.10;10.00;;;;;;;15.05;100.00;92635.28;2537062;23;20012;-82
2023/06/30 04:21:17;;;;;;;20.55;9.70;;;;;;;15.08;100.00;92629.75;2559675;23;20029;-82
2023/06/30 04:22:26;;;;;;;16.38;9.27;;;;;;;15.08;100.00;92627.06;2562207;23;20008;-83
2023/06/30 04:23:30;;;;;;;17.23;10.10;;;;;;;15.05;100.00;92624.50;2557813;23;20013;-85
2023/06/30 04:24:39;;;;;;;22.50;9.73;;;;;;;15.00;100.00;92625.88;2548053;23;20541;-82
2023/06/30 04:25:48;;;;;;;15.57;9.45;;;;;;;15.00;100.00;92625.16;2547666;23;20013;-82
2023/06/30 04:26:55;;;;;;;17.25;9.65;;;;;;;15.01;100.00;92629.31;2536799;23;20103;-85
2023/06/30 04:28:03;;;;;;;16.23;9.18;;;;;;;15.09;100.00;92625.09;2560456;23;20012;-82
2023/06/30 04:29:13;;;;;;;21.00;10.88;;;;;;;15.08;100.00;92635.13;2554475;23;20420;-82
2023/06/30 04:30:21;;;;;;;16.13;9.77;;;;;;;15.16;100.00;92634.81;2570094;23;20058;-82
2023/06/30 04:31:27;;;;;;;21.52;10.43;;;;;;;15.04;100.00;92626.47;2555144;23;20012;-82
2023/06/30 04:32:36;;;;;;;17.88;9.82;;;;;;;15.08;100.00;92629.00;2546452;23;20097;-83
2023/06/30 04:33:41;;;;;;;17.33;10.88;;;;;;;15.11;100.00;92630.78;2570359;23;20001;-86
2023/06/30 04:34:46;;;;;;;18.42;10.50;;;;;;;15.08;100.00;92631.69;2545695;23;20009;-85
2023/06/30 04:35:53;;;;;;;19.05;10.30;;;;;;;15.04;100.00;92636.50;2545590;23;20697;-81
2023/06/30 04:36:54;;;;;;;20.35;11.45;;;;;;;14.99;100.00;92637.13;2547548;23;20005;-83
2023/06/30 04:37:57;;;;;;;23.45;11.05;;;;;;;15.11;100.00;92630.78;2545938;23;20005;-82
2023/06/30 04:39:09;;;;;;;20.00;10.00;;;;;;;15.02;100.00;92630.84;2550592;23;20009;-83
2023/06/30 04:40:33;;;;;;;18.17;10.38;;;;;;;15.17;100.00;92634.34;2563107;23;20013;-83
2023/06/30 04:41:59;;;;;;;17.73;10.38;;;;;;;15.18;100.00;92640.47;2557535;23;20001;-81
2023/06/30 04:43:11;;;;;;;23.58;10.98;;;;;;;15.18;100.00;92646.59;2553543;23;20012;-81
2023/06/30 04:44:18;;;;;;;19.08;10.75;;;;;;;15.20;100.00;92648.84;2569726;23;20347;-84
2023/06/30 04:45:27;;;;;;;19.73;11.40;;;;;;;15.24;100.00;92652.13;2553600;23;20005;-82
2023/06/30 04:46:32;;;;;;;21.25;12.43;;;;;;;15.23;100.00;92654.06;2548101;23;20412;-84
2023/06/30 04:47:36;;;;;;;21.17;12.20;;;;;;;15.19;100.00;92655.41;2545226;23;20014;-81
2023/06/30 04:48:43;;;;;;;18.48;12.05;;;;;;;15.25;100.00;92659.00;2534076;23;20016;-84
2023/06/30 04:49:44;;;;;;;18.77;11.95;;;;;;;15.33;100.00;92666.28;2534341;23;20607;-88
2023/06/30 04:50:45;;;;;;;20.45;12.48;;;;;;;15.30;100.00;92671.81;2532204;23;20078;-86
2023/06/30 04:51:50;;;;;;;20.25;12.30;;;;;;;15.20;100.00;92671.13;2543894;23;20005;-84
2023/06/30 04:52:52;;;;;;;22.02;11.85;;;;;;;15.21;100.00;92674.56;2545690;23;20424;-84
2023/06/30 04:53:53;;;;;;;18.75;12.23;;;;;;;15.18;100.00;92681.59;2543931;23;20005;-86
2023/06/30 04:54:56;;;;;;;22.55;12.10;;;;;;;15.20;100.00;92675.78;2543622;23;20044;-85
2023/06/30 04:55:58;;;;;;;22.17;11.80;;;;;;;15.21;100.00;92682.63;2544729;23;20088;-82
2023/06/30 04:57:09;;;;;;;19.77;11.52;;;;;;;15.29;100.00;92694.56;2537807;23;20018;-82
2023/06/30 04:58:11;;;;;;;25.80;12.25;;;;;;;15.22;100.00;92686.81;2548731;23;20005;-81
2023/06/30 04:59:12;;;;;;;23.23;12.38;;;;;;;15.20;100.00;92687.28;2544602;23;20092;-82
2023/06/30 05:00:14;;;;;;;22.45;12.95;;;;;;;15.15;100.00;92687.16;2544221;23;20013;-81
2023/06/30 05:01:15;;;;;;;18.70;11.85;;;;;;;15.21;100.00;92682.63;2557483;23;20611;-85
2023/06/30 05:02:18;;;;;;;20.30;12.27;;;;;;;15.23;100.00;92693.69;2533196;23;20093;-84
2023/06/30 05:03:19;;;;;;;18.70;11.77;;;;;;;15.23;100.00;92689.06;2532358;23;20013;-82
2023/06/30 05:04:20;;;;;;;21.05;12.32;;;;;;;15.24;100.00;92689.81;2535128;23;20009;-87
2023/06/30 05:05:21;;;;;;;22.65;12.68;;;;;;;15.25;100.00;92694.00;2557341;23;20391;-84
2023/06/30 05:06:35;;;;;;;26.63;13.00;;;;;;;15.24;100.00;92687.88;2560123;23;20012;-82
2023/06/30 05:07:37;;;;;;;22.65;12.43;;;;;;;15.20;100.00;92689.97;2562715;23;19996;-86
2023/06/30 05:08:38;;;;;;;24.63;13.23;;;;;;;15.19;100.00;92690.41;2548569;23;20001;-86
2023/06/30 05:09:39;;;;;;;22.33;12.43;;;;;;;15.19;100.00;92691.19;2556071;23;20399;-87
2023/06/30 05:10:40;;;;;;;21.58;12.27;;;;;;;15.20;100.00;92695.34;2556305;23;20005;-81
2023/06/30 05:11:41;;;;;;;26.05;13.50;;;;;;;15.22;100.00;92692.94;2555453;23;20015;-88
2023/06/30 05:12:42;;;;;;;24.60;13.18;;;;;;;15.25;100.00;92694.00;2547375;23;20425;-82
2023/06/30 05:13:43;;;;;;;24.52;13.32;;;;;;;15.22;100.00;92692.94;2560344;23;20051;-83
2023/06/30 05:14:46;;;;;;;28.23;13.45;;;;;;;15.26;100.00;92698.16;2545830;23;20005;-83